createdAt,value
2023-03-22T00:02:09.500Z,2.75
2023-03-22T00:07:31.536Z,2.40
2023-03-22T00:12:53.292Z,2.38
2023-03-22T00:18:16.197Z,2.25
2023-03-22T00:23:37.899Z,2.60
2023-03-22T00:28:59.865Z,2.05
2023-03-22T00:34:21.613Z,2.42
2023-03-22T00:39:44.348Z,2.53
2023-03-22T00:45:09.628Z,2.42
2023-03-22T00:50:31.335Z,2.28
2023-03-22T00:55:53.081Z,1.98
2023-03-22T01:01:15.203Z,2.47
2023-03-22T01:06:37.019Z,2.30
2023-03-22T01:11:58.862Z,2.20
2023-03-22T01:17:20.720Z,2.50
2023-03-22T01:22:42.438Z,2.28
2023-03-22T01:28:06.649Z,2.30
2023-03-22T01:33:28.340Z,2.03
2023-03-22T01:38:50.507Z,2.30
2023-03-22T01:44:18.323Z,2.63
2023-03-22T01:49:40.838Z,2.40
2023-03-22T01:55:04.412Z,2.42
2023-03-22T02:00:26.744Z,2.42
2023-03-22T02:05:48.468Z,2.03
2023-03-22T02:11:17.105Z,3.08
2023-03-22T02:16:55.823Z,2.35
2023-03-22T02:22:49.943Z,2.50
2023-03-22T02:28:16.398Z,2.17
2023-03-22T02:33:47.181Z,2.80
2023-03-22T02:39:19.348Z,2.45
2023-03-22T02:45:03.124Z,2.65
2023-03-22T02:50:29.574Z,2.10
2023-03-22T02:56:02.434Z,2.45
2023-03-22T03:01:29.164Z,2.20
2023-03-22T03:06:53.522Z,2.20
2023-03-22T03:12:20.201Z,2.22
2023-03-22T03:17:48.350Z,2.60
2023-03-22T03:23:33.141Z,2.50
2023-03-22T03:29:08.419Z,2.22
2023-03-22T03:34:36.091Z,2.40
2023-03-22T03:40:05.347Z,2.20
2023-03-22T03:45:27.563Z,2.47
2023-03-22T03:50:52.983Z,2.42
2023-03-22T03:56:14.742Z,2.40
2023-03-22T04:01:36.524Z,2.08
2023-03-22T04:07:00.376Z,2.20
2023-03-22T04:12:22.136Z,2.28
2023-03-22T04:17:44.212Z,1.92
2023-03-22T04:23:05.964Z,2.10
2023-03-22T04:28:28.727Z,1.92
2023-03-22T04:33:54.919Z,2.13
2023-03-22T04:39:18.211Z,2.15
2023-03-22T04:44:39.927Z,2.33
2023-03-22T04:50:01.834Z,2.55
2023-03-22T04:55:23.588Z,2.45
2023-03-22T05:00:45.326Z,2.25
2023-03-22T05:06:08.990Z,2.70
2023-03-22T05:11:30.727Z,2.45
2023-03-22T05:16:52.583Z,2.75
2023-03-22T05:22:14.426Z,2.60
2023-03-22T05:27:38.959Z,4.80
2023-03-22T05:33:03.748Z,10.90
2023-03-22T05:38:25.607Z,5.32
2023-03-22T05:43:47.404Z,3.33
2023-03-22T05:49:10.560Z,2.67
2023-03-22T05:54:33.777Z,2.45
2023-03-22T05:59:56.881Z,3.10
2023-03-22T06:05:18.801Z,3.83
2023-03-22T06:10:40.853Z,3.53
2023-03-22T06:16:03.983Z,2.85
2023-03-22T06:21:25.807Z,2.85
2023-03-22T06:26:47.656Z,3.67
2023-03-22T06:32:09.606Z,3.00
2023-03-22T06:37:31.321Z,2.70
2023-03-22T06:42:54.314Z,3.08
2023-03-22T06:48:16.058Z,3.20
2023-03-22T06:53:37.878Z,3.20
2023-03-22T06:58:59.638Z,3.40
2023-03-22T07:04:21.562Z,3.40
2023-03-22T07:09:43.378Z,3.00
2023-03-22T07:15:05.716Z,3.08
2023-03-22T07:20:27.768Z,2.58
2023-03-22T07:25:50.045Z,4.28
2023-03-22T07:31:12.895Z,3.42
2023-03-22T07:36:34.800Z,3.15
2023-03-22T07:41:56.639Z,2.85
2023-03-22T07:47:27.213Z,2.45
2023-03-22T07:52:56.088Z,2.33
2023-03-22T07:58:19.243Z,1.88
2023-03-22T08:03:41.038Z,1.55
2023-03-22T08:09:08.422Z,1.58
2023-03-22T08:14:36.366Z,1.65
2023-03-22T08:19:58.876Z,2.42
2023-03-22T08:25:21.072Z,1.80
2023-03-22T08:30:44.457Z,1.25
2023-03-22T08:36:09.718Z,1.42
2023-03-22T08:41:31.605Z,1.30
2023-03-22T08:46:53.710Z,1.63
2023-03-22T08:52:15.488Z,1.33
2023-03-22T08:57:38.852Z,1.20
2023-03-22T09:03:00.813Z,1.17
2023-03-22T09:08:22.522Z,1.20
2023-03-22T09:13:44.976Z,1.35
2023-03-22T09:19:07.249Z,1.33
2023-03-22T09:24:29.035Z,1.63
2023-03-22T09:29:52.572Z,1.08
2023-03-22T09:35:14.329Z,0.90
2023-03-22T09:40:39.512Z,1.35
2023-03-22T09:46:02.259Z,1.00
2023-03-22T09:51:41.744Z,1.10
2023-03-22T09:57:19.043Z,0.68
2023-03-22T10:02:40.800Z,1.10
2023-03-22T10:08:17.146Z,0.90
2023-03-22T10:13:51.615Z,1.08
2023-03-22T10:19:20.754Z,1.58
2023-03-22T10:24:46.105Z,0.82
2023-03-22T10:30:22.820Z,0.90
2023-03-22T10:35:45.724Z,1.10
2023-03-22T10:41:09.671Z,1.20
2023-03-22T10:46:39.378Z,1.30
2023-03-22T10:52:27.081Z,1.02
2023-03-22T10:58:12.152Z,1.13
2023-03-22T11:03:44.216Z,1.02
2023-03-22T11:09:14.089Z,0.88
2023-03-22T11:14:42.221Z,0.90
2023-03-22T11:20:09.875Z,1.00
2023-03-22T11:25:36.252Z,0.60
2023-03-22T11:31:05.216Z,1.10
2023-03-22T11:36:28.010Z,0.98
2023-03-22T11:41:50.038Z,0.70
2023-03-22T11:47:14.009Z,0.60
2023-03-22T11:52:36.121Z,0.98
2023-03-22T11:57:58.276Z,1.13
2023-03-22T12:03:24.083Z,0.70
2023-03-22T12:08:58.362Z,0.80
2023-03-22T12:14:29.641Z,0.80
2023-03-22T12:19:57.387Z,0.63
2023-03-22T12:25:28.987Z,1.00
2023-03-22T12:30:53.927Z,1.02
2023-03-22T12:36:21.775Z,1.20
2023-03-22T12:41:48.293Z,0.80
2023-03-22T12:47:41.723Z,0.85
2023-03-22T12:53:05.274Z,0.68
2023-03-22T12:58:27.440Z,1.00
2023-03-22T13:03:53.599Z,0.80
2023-03-22T13:09:34.436Z,0.82
2023-03-22T13:15:16.071Z,0.80
2023-03-22T13:20:41.022Z,0.65
2023-03-22T13:26:05.049Z,1.10
2023-03-22T13:31:37.537Z,0.70
2023-03-22T13:37:01.491Z,1.05
2023-03-22T13:42:35.655Z,1.02
2023-03-22T13:48:29.443Z,0.70
2023-03-22T13:53:56.844Z,0.98
2023-03-22T13:59:27.905Z,0.80
2023-03-22T14:04:56.431Z,0.60
2023-03-22T14:10:26.333Z,0.93
2023-03-22T14:15:55.729Z,0.60
2023-03-22T14:21:35.452Z,0.80
